Погода Приморскийна неделю

Республика Дагестан, Россия

21 - 27 мая
  • 21мая
    Сегодня
    +14°
    +22°
    Ясно и безоблачно
    ВремяПогодаТемператураВлажностьДавлениеВетер, м/сВероятность осадков
    00:00Ясно и безоблачно+15°C85 %763 мм0.8 м/с2 %
    03:00Ясно и безоблачно+15°C74 %763 мм1.0 м/с2 %
    06:00Ясно и безоблачно+16°C71 %764 мм0.8 м/с2 %
    09:00Ясно и безоблачно+20°C52 %765 мм2.3 м/с2 %
    12:00Ясно и безоблачно+22°C51 %765 мм2.9 м/с5 %
    15:00Ясно и безоблачно+20°C48 %765 мм2.8 м/с8 %
    18:00Ясно и безоблачно+18°C68 %765 мм1.7 м/с5 %
    21:00Ясно и безоблачно+16°C83 %765 мм1.4 м/с2 %
  • 22мая
    Среда
    +14°
    +21°
    Облачно с прояснениями
    ВремяПогодаТемператураВлажностьДавлениеВетер, м/сВероятность осадков
    00:00Ясно и безоблачно+15°C83 %764 мм1.0 м/с2 %
    03:00Ясно и безоблачно+15°C80 %764 мм1.5 м/с2 %
    06:00Ясно и безоблачно+16°C72 %764 мм1.5 м/с2 %
    09:00Облачно с прояснениями+19°C56 %764 мм3.3 м/с2 %
    12:00Облачно с прояснениями+21°C60 %763 мм3.6 м/с3 %
    15:00Облачно с прояснениями+20°C58 %763 мм3.4 м/с5 %
    18:00Небольшая облачность+18°C72 %762 мм1.9 м/с4 %
    21:00Небольшая облачность+17°C87 %762 мм1.4 м/с3 %
  • 23мая
    Четверг
    +16°
    +23°
    Небольшая облачность
    ВремяПогодаТемператураВлажностьДавлениеВетер, м/сВероятность осадков
    00:00Ясно и безоблачно+16°C92 %761 мм0.9 м/с4 %
    03:00Практически безоблачно+16°C92 %761 мм1.5 м/с3 %
    06:00Ясно и безоблачно+18°C78 %761 мм1.0 м/с5 %
    09:00Ясно и безоблачно+21°C65 %760 мм2.7 м/с6 %
    12:00Практически безоблачно+22°C66 %760 мм3.0 м/с9 %
    15:00Небольшая облачность+21°C62 %760 мм2.8 м/с15 %
    18:00Практически безоблачно+18°C75 %760 мм1.9 м/с12 %
    21:00Практически безоблачно+17°C86 %761 мм1.0 м/с9 %
  • 24мая
    Пятница
    +16°
    +23°
    Облачно с прояснениями
    ВремяПогодаТемператураВлажностьДавлениеВетер, м/сВероятность осадков
    00:00Небольшая облачность, ливень+17°C91 %761 мм1.0 м/с14 %
    03:00Облачно с прояснениями+17°C93 %761 мм1.1 м/с16 %
    06:00Облачно с прояснениями+18°C86 %762 мм1.0 м/с13 %
    09:00Небольшая облачность+21°C70 %762 мм2.2 м/с17 %
    12:00Небольшая облачность+23°C65 %763 мм2.8 м/с27 %
    15:00Облачно с прояснениями+22°C66 %763 мм2.9 м/с29 %
    18:00Облачно с прояснениями+19°C73 %764 мм1.6 м/с15 %
    21:00Облачно с прояснениями+18°C94 %765 мм1.3 м/с15 %
Мы используем cookies
Соглашаюсь